createdAt,value
2019-03-24T00:04:57.845Z,8.00
2019-03-24T00:10:04.042Z,7.90
2019-03-24T00:15:10.485Z,7.90
2019-03-24T00:20:16.576Z,7.90
2019-03-24T00:25:22.408Z,7.80
2019-03-24T00:30:28.179Z,7.60
2019-03-24T00:35:34.042Z,7.50
2019-03-24T00:40:39.884Z,7.60
2019-03-24T00:45:46.974Z,7.50
2019-03-24T00:50:52.816Z,7.40
2019-03-24T00:55:58.667Z,7.30
2019-03-24T01:01:04.727Z,7.30
2019-03-24T01:06:10.663Z,7.40
2019-03-24T01:11:16.578Z,7.20
2019-03-24T01:16:22.425Z,7.10
2019-03-24T01:21:28.263Z,7.10
2019-03-24T01:26:34.106Z,7.10
2019-03-24T01:31:39.979Z,7.10
2019-03-24T01:36:45.838Z,7.10
2019-03-24T01:41:51.702Z,7.10
2019-03-24T01:46:57.702Z,7.10
2019-03-24T01:52:03.537Z,7.00
2019-03-24T01:57:09.476Z,7.00
2019-03-24T02:02:15.311Z,6.90
2019-03-24T02:07:21.147Z,6.90
2019-03-24T02:12:26.983Z,6.80
2019-03-24T02:17:32.848Z,6.80
2019-03-24T02:22:38.683Z,6.80
2019-03-24T02:27:44.531Z,6.70
2019-03-24T02:32:50.400Z,6.70
2019-03-24T02:37:56.251Z,6.70
2019-03-24T02:43:02.163Z,6.60
2019-03-24T02:48:08.045Z,6.70
2019-03-24T02:53:13.858Z,6.50
2019-03-24T02:58:19.751Z,6.50
2019-03-24T03:03:25.562Z,6.40
2019-03-24T03:08:31.431Z,6.40
2019-03-24T03:13:37.285Z,6.40
2019-03-24T03:18:43.126Z,6.30
2019-03-24T03:23:48.992Z,6.30
2019-03-24T03:28:54.842Z,6.20
2019-03-24T03:34:00.724Z,6.20
2019-03-24T03:39:08.387Z,6.10
2019-03-24T03:44:14.228Z,6.00
2019-03-24T03:49:20.100Z,6.00
2019-03-24T03:54:25.973Z,6.00
2019-03-24T03:59:31.893Z,5.90
2019-03-24T04:04:37.726Z,5.90
2019-03-24T04:09:43.586Z,5.90
2019-03-24T04:14:49.417Z,5.90
2019-03-24T04:19:56.346Z,5.80
2019-03-24T04:25:02.194Z,5.80
2019-03-24T04:30:08.482Z,5.80
2019-03-24T04:35:14.360Z,5.70
2019-03-24T04:40:20.210Z,5.70
2019-03-24T04:45:26.055Z,5.60
2019-03-24T04:50:31.939Z,5.60
2019-03-24T04:55:37.795Z,5.60
2019-03-24T05:00:43.639Z,5.50
2019-03-24T05:05:49.664Z,5.50
2019-03-24T05:10:55.487Z,5.50
2019-03-24T05:16:01.334Z,5.50
2019-03-24T05:21:07.171Z,5.50
2019-03-24T05:26:13.012Z,5.50
2019-03-24T05:31:18.891Z,5.40
2019-03-24T05:36:24.763Z,5.50
2019-03-24T05:41:30.609Z,5.50
2019-03-24T05:46:36.464Z,5.60
2019-03-24T05:51:42.305Z,5.70
2019-03-24T05:56:48.171Z,5.90
2019-03-24T06:01:54.031Z,6.00
2019-03-24T06:06:59.867Z,6.10
2019-03-24T06:12:05.633Z,6.30
2019-03-24T06:17:12.583Z,6.50
2019-03-24T06:22:18.434Z,6.50
2019-03-24T06:27:24.263Z,6.60
2019-03-24T06:32:30.131Z,6.60
2019-03-24T06:37:35.970Z,6.70
2019-03-24T06:42:41.823Z,6.70
2019-03-24T06:47:57.396Z,7.00
2019-03-24T06:52:55.143Z,7.30
2019-03-24T06:58:00.999Z,7.60
2019-03-24T07:03:06.949Z,7.50
2019-03-24T07:08:12.797Z,7.90
2019-03-24T07:13:18.649Z,8.50
2019-03-24T07:18:24.498Z,8.30
2019-03-24T07:23:30.458Z,8.70
2019-03-24T07:28:36.255Z,8.60
2019-03-24T07:33:42.119Z,8.90
2019-03-24T07:38:47.976Z,9.20
2019-03-24T07:43:53.820Z,9.30
2019-03-24T07:48:59.662Z,9.60
2019-03-24T07:54:05.869Z,10.20
2019-03-24T07:59:11.723Z,10.10
2019-03-24T08:04:17.591Z,10.20
2019-03-24T08:09:23.451Z,10.30
2019-03-24T08:14:29.399Z,10.50
2019-03-24T08:19:35.263Z,11.60
2019-03-24T08:24:41.234Z,12.40
2019-03-24T08:29:47.283Z,12.30
2019-03-24T08:34:53.164Z,12.10
2019-03-24T08:39:59.054Z,13.60
2019-03-24T08:45:05.175Z,13.60
2019-03-24T08:50:11.133Z,14.50
2019-03-24T08:55:17.006Z,14.70
2019-03-24T09:00:30.487Z,15.10
2019-03-24T09:05:30.343Z,15.70
2019-03-24T09:10:36.203Z,15.40
2019-03-24T09:15:43.198Z,14.80
2019-03-24T09:20:49.218Z,15.30
2019-03-24T09:25:55.072Z,14.90
2019-03-24T09:31:01.812Z,15.90
2019-03-24T09:36:07.687Z,15.70
2019-03-24T09:41:13.543Z,14.10
2019-03-24T09:46:23.560Z,15.20
2019-03-24T09:51:31.216Z,15.90
2019-03-24T09:56:37.213Z,16.50
2019-03-24T10:01:43.656Z,15.80
2019-03-24T10:06:49.576Z,15.00
2019-03-24T10:11:56.776Z,14.50
2019-03-24T10:17:05.958Z,15.60
2019-03-24T10:22:12.595Z,16.80
2019-03-24T10:27:18.522Z,16.60
2019-03-24T10:32:24.669Z,16.60
2019-03-24T10:37:32.378Z,15.10
2019-03-24T10:42:41.787Z,15.60
2019-03-24T10:47:49.658Z,14.50
2019-03-24T10:52:55.861Z,18.50
2019-03-24T10:58:03.492Z,19.80
2019-03-24T11:03:11.046Z,19.60
2019-03-24T11:08:18.421Z,19.30
2019-03-24T11:13:24.546Z,19.20
2019-03-24T11:18:30.570Z,19.20
2019-03-24T11:23:37.719Z,17.30
2019-03-24T11:28:44.475Z,18.30
2019-03-24T11:33:51.039Z,18.00
2019-03-24T11:38:59.098Z,19.80
2019-03-24T11:44:06.905Z,20.20
2019-03-24T11:49:22.322Z,20.80
2019-03-24T11:54:29.200Z,21.00
2019-03-24T11:59:35.102Z,22.10
2019-03-24T12:04:40.996Z,21.90
2019-03-24T12:09:50.027Z,21.10
2019-03-24T12:15:00.356Z,21.80
2019-03-24T12:20:08.299Z,22.30
2019-03-24T12:25:14.151Z,22.50
2019-03-24T12:30:20.041Z,22.60
2019-03-24T12:35:25.936Z,21.10
2019-03-24T12:40:31.796Z,22.20
2019-03-24T12:45:37.660Z,22.70
2019-03-24T12:50:43.659Z,21.60
2019-03-24T12:55:49.532Z,22.10
2019-03-24T13:00:55.395Z,22.40
2019-03-24T13:06:01.388Z,22.50
2019-03-24T13:11:07.379Z,25.40
2019-03-24T13:16:15.162Z,22.70
2019-03-24T13:21:21.722Z,22.00
2019-03-24T13:26:27.910Z,21.80
2019-03-24T13:31:34.163Z,22.50
2019-03-24T13:36:41.384Z,22.80
2019-03-24T13:41:48.758Z,22.30
2019-03-24T13:46:57.351Z,22.50
2019-03-24T13:52:03.542Z,23.20
2019-03-24T13:57:09.412Z,23.90
2019-03-24T14:02:17.050Z,23.40
2019-03-24T14:07:24.438Z,21.60
2019-03-24T14:12:31.431Z,21.70
2019-03-24T14:17:37.236Z,22.60
2019-03-24T14:22:43.175Z,23.60
2019-03-24T14:27:51.320Z,23.30
2019-03-24T14:32:58.277Z,22.30
2019-03-24T14:38:04.400Z,21.60
2019-03-24T14:43:11.348Z,21.60
2019-03-24T14:48:18.206Z,21.60
2019-03-24T14:53:25.817Z,21.80
2019-03-24T14:58:32.269Z,21.90
2019-03-24T15:03:38.207Z,21.90
2019-03-24T15:08:44.170Z,21.40
2019-03-24T15:13:52.471Z,21.60
2019-03-24T15:18:58.427Z,20.60
2019-03-24T15:24:04.276Z,21.00
2019-03-24T15:29:10.219Z,20.80
2019-03-24T15:34:17.352Z,20.00
2019-03-24T15:39:23.207Z,19.60
2019-03-24T15:44:29.082Z,19.70
2019-03-24T15:49:34.970Z,20.10
2019-03-24T15:54:40.984Z,19.10
2019-03-24T15:59:47.674Z,19.20
2019-03-24T16:04:53.781Z,19.10
2019-03-24T16:09:59.828Z,18.70
2019-03-24T16:15:06.879Z,18.40
2019-03-24T16:20:12.947Z,18.10
2019-03-24T16:25:19.080Z,17.70
2019-03-24T16:30:25.695Z,17.40
2019-03-24T16:35:35.912Z,17.00
2019-03-24T16:40:42.041Z,16.70
2019-03-24T16:45:48.093Z,16.40
2019-03-24T16:50:53.998Z,16.20
2019-03-24T16:56:00.112Z,15.90
2019-03-24T17:01:06.096Z,15.90
2019-03-24T17:06:12.011Z,15.60
2019-03-24T17:11:17.875Z,15.40
2019-03-24T17:16:23.831Z,15.20
2019-03-24T17:21:29.720Z,15.00
2019-03-24T17:26:35.704Z,15.00
2019-03-24T17:31:41.875Z,14.90
2019-03-24T17:36:47.886Z,11.00
2019-03-24T17:41:53.764Z,14.50
2019-03-24T17:46:59.631Z,14.40
2019-03-24T17:52:05.634Z,14.30
2019-03-24T17:57:11.557Z,14.20
2019-03-24T18:02:17.752Z,14.00
2019-03-24T18:07:23.865Z,13.70
2019-03-24T18:12:29.871Z,13.50
2019-03-24T18:17:35.776Z,13.30
2019-03-24T18:22:41.730Z,13.10
2019-03-24T18:27:47.786Z,13.00
2019-03-24T18:32:53.852Z,13.00
2019-03-24T18:37:59.707Z,12.90
2019-03-24T18:43:05.922Z,12.90
2019-03-24T18:48:12.277Z,12.70
2019-03-24T18:53:18.295Z,12.50
2019-03-24T18:58:24.178Z,12.40
2019-03-24T19:03:30.059Z,12.40
2019-03-24T19:08:36.877Z,12.30
2019-03-24T19:13:42.822Z,12.10
2019-03-24T19:18:48.672Z,12.00
2019-03-24T19:23:55.957Z,11.90
2019-03-24T19:29:01.856Z,11.70
2019-03-24T19:34:07.811Z,11.50
2019-03-24T19:39:13.679Z,11.30
2019-03-24T19:44:19.720Z,11.20
2019-03-24T19:49:25.576Z,11.00
2019-03-24T19:54:31.432Z,10.70
2019-03-24T19:59:37.504Z,10.70
2019-03-24T20:04:43.503Z,10.60
2019-03-24T20:09:49.410Z,10.60
2019-03-24T20:14:55.393Z,10.50
2019-03-24T20:20:01.480Z,10.50
2019-03-24T20:25:07.801Z,10.10
2019-03-24T20:30:13.951Z,10.00
2019-03-24T20:35:19.839Z,10.00
2019-03-24T20:40:25.886Z,9.90
2019-03-24T20:45:31.746Z,10.00
2019-03-24T20:50:37.711Z,9.90
2019-03-24T20:55:43.587Z,9.70
2019-03-24T21:00:49.616Z,9.60
2019-03-24T21:05:55.747Z,9.50
2019-03-24T21:11:01.687Z,9.50
2019-03-24T21:16:07.543Z,9.40
2019-03-24T21:21:13.472Z,9.20
2019-03-24T21:26:19.420Z,9.10
2019-03-24T21:31:28.587Z,9.10
2019-03-24T21:36:34.615Z,9.00
2019-03-24T21:41:41.260Z,9.00
2019-03-24T21:46:47.955Z,8.90
2019-03-24T21:51:54.510Z,8.80
2019-03-24T21:57:01.078Z,8.50
2019-03-24T22:02:07.155Z,8.20
2019-03-24T22:07:13.623Z,8.20
2019-03-24T22:12:20.059Z,8.20
2019-03-24T22:17:26.782Z,8.10
2019-03-24T22:22:33.297Z,8.00
2019-03-24T22:27:39.428Z,8.00
2019-03-24T22:32:45.321Z,8.00
2019-03-24T22:37:51.301Z,8.10
2019-03-24T22:42:57.151Z,8.20
2019-03-24T22:48:03.126Z,8.10
2019-03-24T22:53:09.075Z,8.20
2019-03-24T22:58:14.991Z,8.20
2019-03-24T23:03:21.175Z,8.00
2019-03-24T23:08:27.062Z,8.00
2019-03-24T23:13:32.899Z,8.00
2019-03-24T23:18:38.742Z,7.90
2019-03-24T23:23:46.418Z,7.80
2019-03-24T23:28:53.399Z,7.90
2019-03-24T23:33:59.513Z,7.90
2019-03-24T23:39:07.726Z,8.00
2019-03-24T23:44:13.747Z,8.10
2019-03-24T23:49:19.795Z,8.20
2019-03-24T23:54:27.352Z,8.20
2019-03-24T23:59:34.799Z,8.20
